Aeroporto :
LOGIN :

Iscrizione | Disclaimer

   EN    FR    IT 

 










Sommario :    VFR   VFR Marginale   IFR   IFR Intensivo   IFR Molto Intensivo
Visibilità : 
Base nubi : 
>= 8 km
>= 3000ft
5 / 8 km
1000 / 3000 ft
1500m / 5 km
500 / 1000 ft
800 / 1500m
200 / 500 ft
< 800m
< 200 ft
Simboli :   Temporali  Nebbia  Neve Forte  Precipitazioni Forti  Vento > 20 kt
SIGMETs :   Varie  Temporali  Ghiacco  Turbolenza  Onda orograficha  Ceneri Vulcaniche






- Altitudine del aeroporto : 18 ft
- Codice IATA : KDL


EEKA - Kardla

ULTIMO METAR :
  • 051550Z 23013G24KT 180V290 9999 BKN017 BKN025 07/04 Q1000

METARs OBSOLETI :
  • 051450Z 24012G25KT 190V290 9999 OVC019 07/04 Q1001

TAF TAF EEKA
Valido dal 05 a 14 ore il 05 a 20 ore UTC


051300Z 0514/0520 23016G26KT 9999 BKN015
TEMPO 0514/0520 23018G30KT
PROB40
TEMPO 0514/0520 BKN007 SCT020CB



MetMap, La meteo Aeronautica in un colpo d'occhio ! - Copyright ORBIFLY Dicembre 2007 - Disclaimer

ORBIFLY MET'MAP TEAM :

Programmazione e sviluppo : Alexandra Zaïnal
Concezione : Baudouin d'Aumeries
Aiuto per la programmazione : Marc-Olivier Méhu
Supporto tecnico e logistico : Manuel Goepfert
Aiuto per la traduzione : Arnaldo La Scala

Contatto : metmap@orbifly.com




FONTI E CREDITI :

   NOAA